Time;durP1;ratioP1;P1;durP2;ratioP2;P2;SDS_P1;SDS_P2;PMS_P1;PMS_P2;Temp;Humidity;BMP_temperature;BMP_pressure;BME280_temperature;BME280_humidity;BME280_pressure;Samples;Min_cycle;Max_cycle;Signal;HPM_P1;HPM_P2
2023/07/01 00:02:05;;;;;;;1999.90;999.90;;;;;;;;;;5052509;28;20060;-75
2023/07/01 00:04:32;;;;;;;1999.90;999.90;;;;;;;;;;5045858;28;20045;-74
2023/07/01 00:07:00;;;;;;;1999.90;999.90;;;;;;;;;;5051593;28;20048;-76
2023/07/01 00:09:26;;;;;;;1999.90;999.90;;;;;;;;;;5050269;28;20045;-76
2023/07/01 00:11:53;;;;;;;1999.90;999.90;;;;;;;;;;5043669;28;20045;-75
2023/07/01 00:14:19;;;;;;;1999.90;999.90;;;;;;;;;;5048018;28;20551;-76
2023/07/01 00:16:45;;;;;;;1999.90;999.90;;;;;;;;;;5057129;28;20487;-76
2023/07/01 00:19:12;;;;;;;1999.90;999.90;;;;;;;;;;5045017;28;20619;-75
2023/07/01 00:21:38;;;;;;;1999.90;999.90;;;;;;;;;;5053613;28;20416;-75
2023/07/01 00:24:06;;;;;;;1999.90;999.90;;;;;;;;;;5049070;28;20061;-75
2023/07/01 00:26:33;;;;;;;1999.90;999.90;;;;;;;;;;5043050;28;20045;-76
2023/07/01 00:28:59;;;;;;;1999.90;999.90;;;;;;;;;;5048737;28;20048;-76
2023/07/01 00:31:26;;;;;;;1999.90;999.90;;;;;;;;;;5058017;28;20044;-76
2023/07/01 00:33:52;;;;;;;1999.90;999.90;;;;;;;;;;5045001;28;20045;-76
2023/07/01 00:36:19;;;;;;;1999.90;999.90;;;;;;;;;;5046881;28;20048;-76
2023/07/01 00:38:45;;;;;;;1999.90;999.90;;;;;;;;;;5049076;28;20076;-77
2023/07/01 00:41:14;;;;;;;1999.90;999.90;;;;;;;;;;5047103;28;20052;-78
2023/07/01 00:43:41;;;;;;;1999.90;999.90;;;;;;;;;;5052442;28;20052;-78
2023/07/01 00:46:07;;;;;;;1999.90;999.90;;;;;;;;;;5054014;28;20079;-78
2023/07/01 00:48:34;;;;;;;1999.90;999.90;;;;;;;;;;5041395;28;20042;-78
2023/07/01 00:51:01;;;;;;;1999.90;999.90;;;;;;;;;;5048110;28;20049;-78
2023/07/01 00:53:27;;;;;;;1999.90;999.90;;;;;;;;;;5046199;28;20049;-78
2023/07/01 00:55:54;;;;;;;1999.90;999.90;;;;;;;;;;5038065;28;20056;-78
2023/07/01 00:58:22;;;;;;;1999.90;999.90;;;;;;;;;;5050586;28;20049;-78
2023/07/01 01:00:48;;;;;;;1999.90;999.90;;;;;;;;;;5047138;28;20044;-78
2023/07/01 01:03:21;;;;;;;1999.90;999.90;;;;;;;;;;5045226;28;20072;-77
2023/07/01 01:05:50;;;;;;;1999.90;999.90;;;;;;;;;;5044805;28;20068;-79
2023/07/01 01:08:19;;;;;;;1999.90;999.90;;;;;;;;;;5044741;28;20055;-80
2023/07/01 01:10:48;;;;;;;1999.90;999.90;;;;;;;;;;5042973;28;20049;-80
2023/07/01 01:13:15;;;;;;;1999.90;999.90;;;;;;;;;;5050700;28;20520;-77
2023/07/01 01:15:43;;;;;;;1999.90;999.90;;;;;;;;;;5049500;28;20056;-81
2023/07/01 01:18:12;;;;;;;1999.90;999.90;;;;;;;;;;5039226;28;20049;-80
2023/07/01 01:20:39;;;;;;;1999.90;999.90;;;;;;;;;;5043945;28;20626;-80
2023/07/01 01:23:13;;;;;;;1999.90;999.90;;;;;;;;;;5051406;28;20049;-80
2023/07/01 01:25:44;;;;;;;1999.90;999.90;;;;;;;;;;5044342;28;20110;-78
2023/07/01 01:28:12;;;;;;;1999.90;999.90;;;;;;;;;;5053612;28;20049;-79
2023/07/01 01:30:38;;;;;;;1999.90;999.90;;;;;;;;;;5049311;28;20049;-78
2023/07/01 01:33:06;;;;;;;1999.90;999.90;;;;;;;;;;5045143;28;20052;-79
2023/07/01 01:35:32;;;;;;;1999.90;999.90;;;;;;;;;;5046171;28;20040;-81
2023/07/01 01:38:05;;;;;;;1999.90;999.90;;;;;;;;;;5044975;28;20413;-79
2023/07/01 01:40:34;;;;;;;1999.90;999.90;;;;;;;;;;5040914;28;20489;-79
2023/07/01 01:43:06;;;;;;;1999.90;999.90;;;;;;;;;;5050279;28;20071;-79
2023/07/01 01:45:34;;;;;;;1999.90;999.90;;;;;;;;;;5047870;28;20464;-79
2023/07/01 01:48:01;;;;;;;1999.90;999.90;;;;;;;;;;5042215;28;20135;-80
2023/07/01 01:50:28;;;;;;;1999.90;999.90;;;;;;;;;;5049899;28;20045;-81
2023/07/01 01:52:54;;;;;;;1999.90;999.90;;;;;;;;;;5047155;28;20060;-79
2023/07/01 01:55:21;;;;;;;1999.90;999.90;;;;;;;;;;5041818;28;20054;-79
2023/07/01 01:57:49;;;;;;;1999.90;999.90;;;;;;;;;;5049051;28;20040;-79
2023/07/01 02:00:16;;;;;;;1999.90;999.90;;;;;;;;;;5047180;28;20136;-79
2023/07/01 02:02:44;;;;;;;1999.90;999.90;;;;;;;;;;5043499;28;20052;-78
2023/07/01 02:05:10;;;;;;;1999.90;999.90;;;;;;;;;;5049556;28;20052;-79
2023/07/01 02:07:37;;;;;;;1999.90;999.90;;;;;;;;;;5048079;28;20068;-79
2023/07/01 02:10:04;;;;;;;1999.90;999.90;;;;;;;;;;5038843;28;20613;-78
2023/07/01 02:12:31;;;;;;;1999.90;999.90;;;;;;;;;;5041378;28;20471;-79
2023/07/01 02:14:57;;;;;;;1999.90;999.90;;;;;;;;;;5050242;28;20179;-78
2023/07/01 02:17:24;;;;;;;1999.90;999.90;;;;;;;;;;5044829;28;20045;-79
2023/07/01 02:19:51;;;;;;;1999.90;999.90;;;;;;;;;;5046412;28;20500;-80
2023/07/01 02:22:18;;;;;;;1999.90;999.90;;;;;;;;;;5047569;28;20057;-79
2023/07/01 02:24:44;;;;;;;1999.90;999.90;;;;;;;;;;5040479;28;20125;-81
2023/07/01 02:27:11;;;;;;;1999.90;999.90;;;;;;;;;;5042855;28;20064;-81
2023/07/01 02:29:37;;;;;;;1999.90;999.90;;;;;;;;;;5048669;28;20037;-81
2023/07/01 02:32:05;;;;;;;1999.90;999.90;;;;;;;;;;5043976;28;20061;-83
2023/07/01 02:34:32;;;;;;;1999.90;999.90;;;;;;;;;;5050235;28;20151;-82
2023/07/01 02:36:59;;;;;;;1999.90;999.90;;;;;;;;;;5050336;28;20045;-82
2023/07/01 02:39:26;;;;;;;1999.90;999.90;;;;;;;;;;5043708;28;20046;-82
2023/07/01 02:41:52;;;;;;;1999.90;999.90;;;;;;;;;;5044058;28;20056;-81
2023/07/01 02:44:19;;;;;;;1999.90;999.90;;;;;;;;;;5056578;28;20045;-80
2023/07/01 02:46:45;;;;;;;1999.90;999.90;;;;;;;;;;5040553;28;20506;-81
2023/07/01 02:49:12;;;;;;;1999.90;999.90;;;;;;;;;;5047426;28;20049;-82
2023/07/01 02:51:38;;;;;;;1999.90;999.90;;;;;;;;;;5056059;28;20041;-82
2023/07/01 02:54:06;;;;;;;1999.90;999.90;;;;;;;;;;5048947;28;20106;-82
2023/07/01 02:56:32;;;;;;;1999.90;999.90;;;;;;;;;;5051184;28;20045;-82
2023/07/01 02:58:59;;;;;;;1999.90;999.90;;;;;;;;;;5055883;28;20045;-82
2023/07/01 03:01:25;;;;;;;1999.90;999.90;;;;;;;;;;5047534;28;20057;-82
2023/07/01 03:03:52;;;;;;;1999.90;999.90;;;;;;;;;;5055540;28;20080;-82
2023/07/01 03:06:18;;;;;;;1999.90;999.90;;;;;;;;;;5054925;28;20540;-82
2023/07/01 03:08:45;;;;;;;1999.90;999.90;;;;;;;;;;5045255;28;20830;-82
2023/07/01 03:11:13;;;;;;;1999.90;999.90;;;;;;;;;;5053277;28;20049;-81
2023/07/01 03:13:39;;;;;;;1999.90;999.90;;;;;;;;;;5052986;28;20045;-82
2023/07/01 03:16:07;;;;;;;1999.90;999.90;;;;;;;;;;5045701;28;20060;-82
2023/07/01 03:18:34;;;;;;;1999.90;999.90;;;;;;;;;;5043612;28;20045;-82
2023/07/01 03:21:00;;;;;;;1999.90;999.90;;;;;;;;;;5052590;28;20052;-82
2023/07/01 03:23:27;;;;;;;1999.90;999.90;;;;;;;;;;5044210;28;20587;-82
2023/07/01 03:25:53;;;;;;;1999.90;999.90;;;;;;;;;;5050364;28;20041;-80
2023/07/01 03:28:21;;;;;;;1999.90;999.90;;;;;;;;;;5058131;28;20051;-79
2023/07/01 03:30:48;;;;;;;1999.90;999.90;;;;;;;;;;5043749;28;20045;-79
2023/07/01 03:33:17;;;;;;;1999.90;999.90;;;;;;;;;;5049045;28;20041;-80
2023/07/01 03:35:43;;;;;;;1999.90;999.90;;;;;;;;;;5051847;28;20076;-80
2023/07/01 03:38:10;;;;;;;1999.90;999.90;;;;;;;;;;5045907;28;20609;-80
2023/07/01 03:40:36;;;;;;;1999.90;999.90;;;;;;;;;;5051066;28;20053;-80
2023/07/01 03:43:03;;;;;;;1999.90;999.90;;;;;;;;;;5055156;28;20051;-80
2023/07/01 03:45:30;;;;;;;1999.90;999.90;;;;;;;;;;5043895;28;20045;-81
2023/07/01 03:47:57;;;;;;;1999.90;999.90;;;;;;;;;;5050153;28;20049;-80
2023/07/01 03:50:24;;;;;;;1999.90;999.90;;;;;;;;;;5057011;28;20037;-80
2023/07/01 03:52:50;;;;;;;1999.90;999.90;;;;;;;;;;5041743;28;20046;-81
2023/07/01 03:55:18;;;;;;;1999.90;999.90;;;;;;;;;;5042226;28;20061;-80
2023/07/01 03:57:44;;;;;;;1999.90;999.90;;;;;;;;;;5051624;28;20108;-81
2023/07/01 04:00:17;;;;;;;1999.90;999.90;;;;;;;;;;5044459;28;20049;-80
2023/07/01 04:02:45;;;;;;;1999.90;999.90;;;;;;;;;;5046901;28;20049;-81
2023/07/01 04:05:11;;;;;;;1999.90;999.90;;;;;;;;;;5054604;28;20045;-81
2023/07/01 04:07:38;;;;;;;1999.90;999.90;;;;;;;;;;5043401;28;20041;-81
2023/07/01 04:10:06;;;;;;;1999.90;999.90;;;;;;;;;;5045328;28;20048;-81
2023/07/01 04:12:33;;;;;;;1999.90;999.90;;;;;;;;;;5049650;28;20132;-81
2023/07/01 04:15:00;;;;;;;1999.90;999.90;;;;;;;;;;5044763;28;20119;-81
2023/07/01 04:17:26;;;;;;;1999.90;999.90;;;;;;;;;;5047582;28;20052;-80
2023/07/01 04:19:54;;;;;;;1999.90;999.90;;;;;;;;;;5052941;28;20049;-81
2023/07/01 04:22:21;;;;;;;1999.90;999.90;;;;;;;;;;5040877;28;20084;-81
2023/07/01 04:24:47;;;;;;;1999.90;999.90;;;;;;;;;;5045339;28;20048;-80
2023/07/01 04:27:14;;;;;;;1999.90;999.90;;;;;;;;;;5051528;28;20044;-80
2023/07/01 04:29:40;;;;;;;1999.90;999.90;;;;;;;;;;5044561;28;20048;-81
2023/07/01 04:32:07;;;;;;;1999.90;999.90;;;;;;;;;;5052208;28;20045;-80
2023/07/01 04:34:34;;;;;;;1999.90;999.90;;;;;;;;;;5053572;28;20044;-81
2023/07/01 04:37:01;;;;;;;1999.90;999.90;;;;;;;;;;5045170;28;20065;-80
2023/07/01 04:39:28;;;;;;;1999.90;999.90;;;;;;;;;;5050972;28;20044;-81
2023/07/01 04:41:54;;;;;;;1999.90;999.90;;;;;;;;;;5049419;28;20052;-81
2023/07/01 04:44:24;;;;;;;1999.90;999.90;;;;;;;;;;5053030;28;20045;-81
2023/07/01 04:46:50;;;;;;;1999.90;999.90;;;;;;;;;;5045008;28;20053;-82
2023/07/01 04:49:17;;;;;;;1999.90;999.90;;;;;;;;;;5052629;28;20557;-80
2023/07/01 04:51:43;;;;;;;1999.90;999.90;;;;;;;;;;5043605;28;20049;-82
2023/07/01 04:54:11;;;;;;;1999.90;999.90;;;;;;;;;;5046125;28;20049;-79
2023/07/01 04:56:37;;;;;;;1999.90;999.90;;;;;;;;;;5052171;28;20170;-81
2023/07/01 04:59:04;;;;;;;1999.90;999.90;;;;;;;;;;5042703;28;20045;-80
2023/07/01 05:01:30;;;;;;;1999.90;999.90;;;;;;;;;;5049081;28;20045;-80
2023/07/01 05:03:57;;;;;;;1999.90;999.90;;;;;;;;;;5055395;28;20300;-79
2023/07/01 05:06:23;;;;;;;1999.90;999.90;;;;;;;;;;5046938;28;20509;-80
2023/07/01 05:08:50;;;;;;;1999.90;999.90;;;;;;;;;;5045019;28;20485;-78
2023/07/01 05:11:17;;;;;;;1999.90;999.90;;;;;;;;;;5053727;28;20503;-79
2023/07/01 05:13:44;;;;;;;1999.90;999.90;;;;;;;;;;5046641;28;20492;-78
2023/07/01 05:16:11;;;;;;;1999.90;999.90;;;;;;;;;;5047950;28;20095;-79
2023/07/01 05:18:37;;;;;;;1999.90;999.90;;;;;;;;;;5052720;28;20447;-79
2023/07/01 05:21:04;;;;;;;1999.90;999.90;;;;;;;;;;5049971;28;20052;-78
2023/07/01 05:23:30;;;;;;;1999.90;999.90;;;;;;;;;;5049170;28;20523;-80
2023/07/01 05:25:57;;;;;;;1999.90;999.90;;;;;;;;;;5053427;28;20052;-79
2023/07/01 05:28:24;;;;;;;1999.90;999.90;;;;;;;;;;5048837;28;20052;-78
2023/07/01 05:30:51;;;;;;;1999.90;999.90;;;;;;;;;;5048898;28;20063;-79
2023/07/01 05:33:18;;;;;;;1999.90;999.90;;;;;;;;;;5049334;28;20045;-78
2023/07/01 05:35:44;;;;;;;1999.90;999.90;;;;;;;;;;5055589;28;20040;-79
2023/07/01 05:38:12;;;;;;;1999.90;999.90;;;;;;;;;;5046491;28;20049;-78
2023/07/01 05:40:38;;;;;;;1999.90;999.90;;;;;;;;;;5049460;28;20501;-79
2023/07/01 05:43:05;;;;;;;1999.90;999.90;;;;;;;;;;5045104;28;20439;-78
2023/07/01 05:45:33;;;;;;;1999.90;999.90;;;;;;;;;;5043896;28;20045;-79
2023/07/01 05:47:59;;;;;;;1999.90;999.90;;;;;;;;;;5051548;28;20052;-78
2023/07/01 05:50:26;;;;;;;1999.90;999.90;;;;;;;;;;5054447;28;20041;-79
2023/07/01 05:52:52;;;;;;;1999.90;999.90;;;;;;;;;;5040186;28;20493;-79
2023/07/01 05:55:19;;;;;;;1999.90;999.90;;;;;;;;;;5051743;28;20045;-78
2023/07/01 05:57:45;;;;;;;1999.90;999.90;;;;;;;;;;5045273;28;20041;-79
2023/07/01 06:00:14;;;;;;;1999.90;999.90;;;;;;;;;;5042086;28;20052;-79
2023/07/01 06:02:42;;;;;;;1999.90;999.90;;;;;;;;;;5050286;28;20052;-78
2023/07/01 06:05:09;;;;;;;1999.90;999.90;;;;;;;;;;5044590;28;20055;-79
2023/07/01 06:07:35;;;;;;;1999.90;999.90;;;;;;;;;;5050623;28;20349;-78
2023/07/01 06:10:02;;;;;;;1999.90;999.90;;;;;;;;;;5049166;28;20049;-78
2023/07/01 06:12:28;;;;;;;1999.90;999.90;;;;;;;;;;5041869;28;20096;-78
2023/07/01 06:14:55;;;;;;;1999.90;999.90;;;;;;;;;;5043987;28;20041;-78
2023/07/01 06:17:21;;;;;;;1999.90;999.90;;;;;;;;;;5049895;28;20060;-78
2023/07/01 06:19:49;;;;;;;1999.90;999.90;;;;;;;;;;5047920;28;20037;-78
2023/07/01 06:22:16;;;;;;;1999.90;999.90;;;;;;;;;;5049376;28;20401;-77
2023/07/01 06:24:42;;;;;;;1999.90;999.90;;;;;;;;;;5050287;28;20053;-78
2023/07/01 06:27:09;;;;;;;1999.90;999.90;;;;;;;;;;5050059;28;20045;-78
2023/07/01 06:29:36;;;;;;;1999.90;999.90;;;;;;;;;;5050761;28;20041;-78
2023/07/01 06:32:02;;;;;;;1999.90;999.90;;;;;;;;;;5055296;28;20044;-78
2023/07/01 06:34:29;;;;;;;1999.90;999.90;;;;;;;;;;5053913;28;20052;-77
2023/07/01 06:36:56;;;;;;;1999.90;999.90;;;;;;;;;;5050684;28;20045;-78
2023/07/01 06:39:23;;;;;;;1999.90;999.90;;;;;;;;;;5052229;28;20051;-77
2023/07/01 06:41:49;;;;;;;1999.90;999.90;;;;;;;;;;5052246;28;20040;-79
2023/07/01 06:44:16;;;;;;;1999.90;999.90;;;;;;;;;;5045090;28;20055;-78
2023/07/01 06:46:42;;;;;;;1999.90;999.90;;;;;;;;;;5052222;28;20053;-77
2023/07/01 06:49:09;;;;;;;1999.90;999.90;;;;;;;;;;5049183;28;20040;-78
2023/07/01 06:51:35;;;;;;;1999.90;999.90;;;;;;;;;;5044833;28;20127;-79
2023/07/01 06:54:03;;;;;;;1999.90;999.90;;;;;;;;;;5047753;28;20048;-79
2023/07/01 06:56:30;;;;;;;1999.90;999.90;;;;;;;;;;5052085;28;20040;-78
2023/07/01 06:58:56;;;;;;;1999.90;999.90;;;;;;;;;;5046047;28;20052;-78
2023/07/01 07:01:23;;;;;;;1999.90;999.90;;;;;;;;;;5053155;28;20057;-78
2023/07/01 07:03:49;;;;;;;1999.90;999.90;;;;;;;;;;5053055;28;20060;-77
2023/07/01 07:06:16;;;;;;;1999.90;999.90;;;;;;;;;;5047679;28;20053;-75
2023/07/01 07:08:42;;;;;;;1999.90;999.90;;;;;;;;;;5050197;28;20045;-75
2023/07/01 07:11:10;;;;;;;1999.90;999.90;;;;;;;;;;5048104;28;20045;-75
2023/07/01 07:13:37;;;;;;;1999.90;999.90;;;;;;;;;;5048460;28;20048;-75
2023/07/01 07:16:03;;;;;;;1999.90;999.90;;;;;;;;;;5048900;28;20131;-75
2023/07/01 07:18:30;;;;;;;1999.90;999.90;;;;;;;;;;5051982;28;20512;-76
2023/07/01 07:20:56;;;;;;;1999.90;999.90;;;;;;;;;;5048046;28;20053;-75
2023/07/01 07:23:23;;;;;;;1999.90;999.90;;;;;;;;;;5051954;28;20079;-76
2023/07/01 07:25:49;;;;;;;1999.90;999.90;;;;;;;;;;5052746;28;20049;-76
2023/07/01 07:28:17;;;;;;;1999.90;999.90;;;;;;;;;;5046204;28;20049;-75
2023/07/01 07:30:44;;;;;;;1999.90;999.90;;;;;;;;;;5046795;28;20393;-75
2023/07/01 07:33:10;;;;;;;1999.90;999.90;;;;;;;;;;5058423;28;20052;-75
2023/07/01 07:35:37;;;;;;;1999.90;999.90;;;;;;;;;;5046961;28;20045;-75
2023/07/01 07:38:04;;;;;;;1999.90;999.90;;;;;;;;;;5054212;28;20049;-75
2023/07/01 07:40:30;;;;;;;1999.90;999.90;;;;;;;;;;5050641;28;20041;-75
2023/07/01 07:42:57;;;;;;;1999.90;999.90;;;;;;;;;;5048798;28;20056;-73
2023/07/01 07:45:25;;;;;;;1999.90;999.90;;;;;;;;;;5051732;28;20048;-75
2023/07/01 07:47:51;;;;;;;1999.90;999.90;;;;;;;;;;5052221;28;20048;-75
2023/07/01 07:50:21;;;;;;;1999.90;999.90;;;;;;;;;;5052535;28;20048;-75
2023/07/01 07:52:48;;;;;;;1999.90;999.90;;;;;;;;;;5049178;28;20037;-75
2023/07/01 07:55:14;;;;;;;1999.90;999.90;;;;;;;;;;5047909;28;20044;-74
2023/07/01 07:57:41;;;;;;;1999.90;999.90;;;;;;;;;;5042710;28;20436;-77
2023/07/01 08:00:08;;;;;;;1999.90;999.90;;;;;;;;;;5046800;28;20061;-78
2023/07/01 08:02:38;;;;;;;1999.90;999.90;;;;;;;;;;5053575;28;20044;-77
2023/07/01 08:05:05;;;;;;;1999.90;999.90;;;;;;;;;;5046057;28;20057;-77
2023/07/01 08:07:31;;;;;;;1999.90;999.90;;;;;;;;;;5050332;28;20049;-77
2023/07/01 08:09:58;;;;;;;1999.90;999.90;;;;;;;;;;5049178;28;20251;-77
2023/07/01 08:12:24;;;;;;;1999.90;999.90;;;;;;;;;;5040146;28;20362;-77
2023/07/01 08:14:51;;;;;;;1999.90;999.90;;;;;;;;;;5052007;28;20424;-77
2023/07/01 08:17:17;;;;;;;1999.90;999.90;;;;;;;;;;5053149;28;20053;-77
2023/07/01 08:19:45;;;;;;;1999.90;999.90;;;;;;;;;;5043444;28;20076;-77
2023/07/01 08:22:12;;;;;;;1999.90;999.90;;;;;;;;;;5044389;28;20061;-77
2023/07/01 08:24:38;;;;;;;1999.90;999.90;;;;;;;;;;5048275;28;20103;-76
2023/07/01 08:27:05;;;;;;;1999.90;999.90;;;;;;;;;;5041575;28;20485;-76
2023/07/01 08:29:32;;;;;;;1999.90;999.90;;;;;;;;;;5051393;28;20044;-76
2023/07/01 08:31:59;;;;;;;1999.90;999.90;;;;;;;;;;5051025;28;20048;-77
2023/07/01 08:34:25;;;;;;;1999.90;999.90;;;;;;;;;;5041702;28;20076;-77
2023/07/01 08:36:53;;;;;;;1999.90;999.90;;;;;;;;;;5044878;28;20072;-77
2023/07/01 08:39:19;;;;;;;1999.90;999.90;;;;;;;;;;5053043;28;20046;-78
2023/07/01 08:41:50;;;;;;;1999.90;999.90;;;;;;;;;;5044697;28;20049;-77
2023/07/01 08:44:18;;;;;;;1999.90;999.90;;;;;;;;;;5053495;28;20045;-76
2023/07/01 08:46:45;;;;;;;1999.90;999.90;;;;;;;;;;5055651;28;20045;-77
2023/07/01 08:49:14;;;;;;;1999.90;999.90;;;;;;;;;;5045955;28;20057;-77
2023/07/01 08:51:43;;;;;;;1999.90;999.90;;;;;;;;;;5046623;28;20056;-74
2023/07/01 08:54:12;;;;;;;1999.90;999.90;;;;;;;;;;5047818;28;20052;-74
2023/07/01 08:56:38;;;;;;;1999.90;999.90;;;;;;;;;;5040573;28;20045;-74
2023/07/01 08:59:05;;;;;;;1999.90;999.90;;;;;;;;;;5049353;28;20489;-74
2023/07/01 09:01:33;;;;;;;1999.90;999.90;;;;;;;;;;5051294;28;20052;-74
2023/07/01 09:04:01;;;;;;;1999.90;999.90;;;;;;;;;;5042886;28;20413;-75
2023/07/01 09:06:27;;;;;;;1999.90;999.90;;;;;;;;;;5047040;28;20084;-73
2023/07/01 09:08:54;;;;;;;1999.90;999.90;;;;;;;;;;5048023;28;20057;-74
2023/07/01 09:11:22;;;;;;;1999.90;999.90;;;;;;;;;;5040845;28;20123;-74
2023/07/01 09:13:54;;;;;;;1999.90;999.90;;;;;;;;;;5048678;28;20049;-73
2023/07/01 09:16:31;;;;;;;1999.90;999.90;;;;;;;;;;5047535;28;20045;-73
2023/07/01 09:19:03;;;;;;;1999.90;999.90;;;;;;;;;;5044022;28;20053;-72
2023/07/01 09:21:32;;;;;;;1999.90;999.90;;;;;;;;;;5047356;28;20060;-73
2023/07/01 09:23:59;;;;;;;1999.90;999.90;;;;;;;;;;5049193;28;20072;-73
2023/07/01 09:26:30;;;;;;;1999.90;999.90;;;;;;;;;;5039444;28;20048;-73
2023/07/01 09:28:58;;;;;;;1999.90;999.90;;;;;;;;;;5041166;28;20045;-76
2023/07/01 09:31:25;;;;;;;1999.90;999.90;;;;;;;;;;5050312;28;20040;-76
2023/07/01 09:34:00;;;;;;;1999.90;999.90;;;;;;;;;;5044171;28;20052;-75
2023/07/01 09:36:27;;;;;;;1999.90;999.90;;;;;;;;;;5047850;28;20496;-75
2023/07/01 09:38:55;;;;;;;1999.90;999.90;;;;;;;;;;5048410;28;20060;-76
2023/07/01 09:41:23;;;;;;;1999.90;999.90;;;;;;;;;;5039546;28;20057;-76
2023/07/01 09:43:51;;;;;;;1999.90;999.90;;;;;;;;;;5043536;28;20497;-76
2023/07/01 09:46:18;;;;;;;1999.90;999.90;;;;;;;;;;5053903;28;20059;-75
2023/07/01 09:48:54;;;;;;;1999.90;999.90;;;;;;;;;;5044095;28;20061;-76
2023/07/01 09:51:21;;;;;;;1999.90;999.90;;;;;;;;;;5047443;28;20045;-75
2023/07/01 09:53:48;;;;;;;1999.90;999.90;;;;;;;;;;5048632;28;20045;-76
2023/07/01 09:56:16;;;;;;;1999.90;999.90;;;;;;;;;;5043768;28;20045;-73
2023/07/01 09:58:43;;;;;;;1999.90;999.90;;;;;;;;;;5045681;28;20160;-73
2023/07/01 10:01:11;;;;;;;1999.90;999.90;;;;;;;;;;5056166;28;20049;-73
2023/07/01 10:03:38;;;;;;;1999.90;999.90;;;;;;;;;;5042677;28;20045;-74
2023/07/01 10:06:05;;;;;;;1999.90;999.90;;;;;;;;;;5052016;28;20468;-73
2023/07/01 10:08:33;;;;;;;1999.90;999.90;;;;;;;;;;5048778;28;20501;-74
2023/07/01 10:11:03;;;;;;;1999.90;999.90;;;;;;;;;;5045902;28;20055;-74
2023/07/01 10:13:32;;;;;;;1999.90;999.90;;;;;;;;;;5050515;28;20064;-76
2023/07/01 10:16:02;;;;;;;1999.90;999.90;;;;;;;;;;5050614;28;20048;-75
2023/07/01 10:18:31;;;;;;;1999.90;999.90;;;;;;;;;;5041093;28;20492;-76
2023/07/01 10:21:28;;;;;;;1999.90;999.90;;;;;;;;;;5048358;28;20045;-75
2023/07/01 10:23:56;;;;;;;1999.90;999.90;;;;;;;;;;5042137;28;20132;-75
2023/07/01 10:26:46;;;;;;;1999.90;999.90;;;;;;;;;;5042551;28;20103;-75
2023/07/01 10:29:41;;;;;;;1999.90;999.90;;;;;;;;;;5043279;28;20048;-75
2023/07/01 10:32:30;;;;;;;1999.90;999.90;;;;;;;;;;5048692;28;20507;-75
2023/07/01 10:35:15;;;;;;;1999.90;999.90;;;;;;;;;;5043931;28;20764;-74
2023/07/01 10:37:42;;;;;;;1999.90;999.90;;;;;;;;;;5052436;28;20492;-75
2023/07/01 10:40:43;;;;;;;1999.90;999.90;;;;;;;;;;5043152;28;20076;-75
2023/07/01 10:43:24;;;;;;;1999.90;999.90;;;;;;;;;;5047975;28;20109;-75
2023/07/01 10:46:07;;;;;;;1999.90;999.90;;;;;;;;;;5052356;28;20049;-75
2023/07/01 10:48:34;;;;;;;1999.90;999.90;;;;;;;;;;5045953;28;20049;-74
2023/07/01 10:51:03;;;;;;;1999.90;999.90;;;;;;;;;;5052441;28;20056;-75
2023/07/01 10:53:30;;;;;;;1999.90;999.90;;;;;;;;;;5043013;28;20144;-77
2023/07/01 10:56:10;;;;;;;1999.90;999.90;;;;;;;;;;5037025;28;20135;-76
2023/07/01 10:58:37;;;;;;;1999.90;999.90;;;;;;;;;;5052340;28;20508;-75
2023/07/01 11:01:04;;;;;;;1999.90;999.90;;;;;;;;;;5047047;28;20080;-75
2023/07/01 11:03:56;;;;;;;1999.90;999.90;;;;;;;;;;5042854;28;20055;-76
2023/07/01 11:06:24;;;;;;;1999.90;999.90;;;;;;;;;;5055143;28;20121;-76
2023/07/01 11:08:51;;;;;;;1999.90;999.90;;;;;;;;;;5042788;28;20045;-76
2023/07/01 11:11:22;;;;;;;1999.90;999.90;;;;;;;;;;5042415;28;20437;-76
2023/07/01 11:13:57;;;;;;;1999.90;999.90;;;;;;;;;;5057720;28;20061;-75
2023/07/01 11:16:26;;;;;;;1999.90;999.90;;;;;;;;;;5045825;28;20049;-73
2023/07/01 11:18:53;;;;;;;1999.90;999.90;;;;;;;;;;5049193;28;20072;-74
2023/07/01 11:21:21;;;;;;;1999.90;999.90;;;;;;;;;;5055258;28;20058;-74
2023/07/01 11:23:54;;;;;;;1999.90;999.90;;;;;;;;;;5041546;28;20409;-74
2023/07/01 11:26:21;;;;;;;1999.90;999.90;;;;;;;;;;5047098;28;20074;-72
2023/07/01 11:28:47;;;;;;;1999.90;999.90;;;;;;;;;;5051939;28;20045;-74
2023/07/01 11:31:16;;;;;;;1999.90;999.90;;;;;;;;;;5046377;28;20344;-72
2023/07/01 11:33:46;;;;;;;1999.90;999.90;;;;;;;;;;5048142;28;20129;-74
2023/07/01 11:36:16;;;;;;;1999.90;999.90;;;;;;;;;;5055693;28;20429;-74
2023/07/01 11:38:44;;;;;;;1999.90;999.90;;;;;;;;;;5045137;28;20051;-73
2023/07/01 11:41:15;;;;;;;1999.90;999.90;;;;;;;;;;5048520;28;20053;-74
2023/07/01 11:43:41;;;;;;;1999.90;999.90;;;;;;;;;;5053567;28;20056;-73
2023/07/01 11:46:09;;;;;;;1999.90;999.90;;;;;;;;;;5051645;28;20060;-73
2023/07/01 11:48:35;;;;;;;1999.90;999.90;;;;;;;;;;5054257;28;20514;-73
2023/07/01 11:51:02;;;;;;;1999.90;999.90;;;;;;;;;;5056758;28;20412;-74
2023/07/01 11:53:28;;;;;;;1999.90;999.90;;;;;;;;;;5048614;28;20416;-73
2023/07/01 11:55:56;;;;;;;1999.90;999.90;;;;;;;;;;5043370;28;20049;-76
2023/07/01 11:58:28;;;;;;;1999.90;999.90;;;;;;;;;;5050833;28;20567;-76
2023/07/01 12:00:55;;;;;;;1999.90;999.90;;;;;;;;;;5048461;28;20063;-73
2023/07/01 12:03:22;;;;;;;1999.90;999.90;;;;;;;;;;5047832;28;20049;-73
2023/07/01 12:05:49;;;;;;;1999.90;999.90;;;;;;;;;;5055205;28;20429;-73
2023/07/01 12:08:15;;;;;;;1999.90;999.90;;;;;;;;;;5045838;28;20053;-72
2023/07/01 12:10:41;;;;;;;1999.90;999.90;;;;;;;;;;5045943;28;20122;-74
2023/07/01 12:13:09;;;;;;;1999.90;999.90;;;;;;;;;;5055678;28;20056;-72
2023/07/01 12:15:54;;;;;;;1999.90;999.90;;;;;;;;;;5044683;28;20480;-72
2023/07/01 12:18:21;;;;;;;;;;;;;;;;;;5052032;28;20071;-72
2023/07/01 12:20:47;;;;;;;1999.90;999.90;;;;;;;;;;5055157;28;20020;-72
2023/07/01 12:23:14;;;;;;;1999.90;999.90;;;;;;;;;;5043631;28;20058;-72
2023/07/01 12:25:40;;;;;;;1999.90;999.90;;;;;;;;;;5052350;28;20857;-73
2023/07/01 12:28:07;;;;;;;1999.90;999.90;;;;;;;;;;5052472;28;20048;-71
2023/07/01 12:30:33;;;;;;;1999.90;999.90;;;;;;;;;;5050351;28;20045;-74
2023/07/01 12:33:01;;;;;;;1999.90;999.90;;;;;;;;;;5054576;28;20053;-73
2023/07/01 12:35:27;;;;;;;1999.90;999.90;;;;;;;;;;5056641;28;20731;-73
2023/07/01 12:37:54;;;;;;;1999.90;999.90;;;;;;;;;;5046777;28;20049;-72
2023/07/01 12:40:21;;;;;;;1999.90;999.90;;;;;;;;;;5044459;28;20069;-72
2023/07/01 12:42:51;;;;;;;1999.90;999.90;;;;;;;;;;5047656;28;20049;-73
2023/07/01 12:45:17;;;;;;;1999.90;999.90;;;;;;;;;;5051612;28;20131;-73
2023/07/01 12:47:44;;;;;;;1999.90;999.90;;;;;;;;;;5048549;28;20049;-72
2023/07/01 12:50:12;;;;;;;1999.90;999.90;;;;;;;;;;5056150;28;20610;-73
2023/07/01 12:52:38;;;;;;;1999.90;999.90;;;;;;;;;;5054004;28;20086;-72
2023/07/01 12:55:09;;;;;;;1999.90;999.90;;;;;;;;;;5043342;28;20098;-71
2023/07/01 12:57:36;;;;;;;1999.90;999.90;;;;;;;;;;5048982;28;20142;-72
2023/07/01 13:00:03;;;;;;;1999.90;999.90;;;;;;;;;;5044837;28;20125;-72
2023/07/01 13:02:30;;;;;;;1999.90;999.90;;;;;;;;;;5042487;28;20056;-72
2023/07/01 13:05:00;;;;;;;1999.90;999.90;;;;;;;;;;5057079;28;20056;-72
2023/07/01 13:07:29;;;;;;;1999.90;999.90;;;;;;;;;;5042651;28;20482;-72
2023/07/01 13:09:56;;;;;;;1999.90;999.90;;;;;;;;;;5046811;28;20061;-72
2023/07/01 13:12:24;;;;;;;1999.90;999.90;;;;;;;;;;5056677;28;20052;-72
2023/07/01 13:14:51;;;;;;;1999.90;999.90;;;;;;;;;;5042617;28;20474;-72
2023/07/01 13:17:18;;;;;;;1999.90;999.90;;;;;;;;;;5043602;28;20047;-73
2023/07/01 13:19:45;;;;;;;1999.90;999.90;;;;;;;;;;5054983;28;20060;-72
2023/07/01 13:22:14;;;;;;;1999.90;999.90;;;;;;;;;;5042592;28;20153;-72
2023/07/01 13:24:44;;;;;;;1999.90;999.90;;;;;;;;;;5050425;28;20445;-72
2023/07/01 13:27:13;;;;;;;1999.90;999.90;;;;;;;;;;5051280;28;20485;-73
2023/07/01 13:29:39;;;;;;;1999.90;999.90;;;;;;;;;;5041876;28;20050;-73
2023/07/01 13:32:06;;;;;;;1999.90;999.90;;;;;;;;;;5047882;28;20805;-73
2023/07/01 13:34:39;;;;;;;1999.90;999.90;;;;;;;;;;5050369;28;20540;-73
2023/07/01 13:37:06;;;;;;;1999.90;999.90;;;;;;;;;;5050793;28;20053;-72
2023/07/01 13:39:43;;;;;;;1999.90;999.90;;;;;;;;;;5049385;28;20049;-71
2023/07/01 13:42:10;;;;;;;1999.90;999.90;;;;;;;;;;5047606;28;20048;-73
2023/07/01 13:44:38;;;;;;;1999.90;999.90;;;;;;;;;;5045057;28;20047;-72
2023/07/01 13:47:06;;;;;;;1999.90;999.90;;;;;;;;;;5052552;28;20128;-73